sensor_id;sensor_type;location;lat;lon;timestamp;P1;durP1;ratioP1;P2;durP2;ratioP2
41253;SDS011;26987;59.928;30.306;2023-04-01T00:00:30;6.43;;;4.22;;
41253;SDS011;26987;59.928;30.306;2023-04-01T00:02:58;8.07;;;4.43;;
41253;SDS011;26987;59.928;30.306;2023-04-01T00:05:26;7.90;;;4.30;;
41253;SDS011;26987;59.928;30.306;2023-04-01T00:07:54;7.80;;;4.60;;
41253;SDS011;26987;59.928;30.306;2023-04-01T00:10:22;9.10;;;4.95;;
41253;SDS011;26987;59.928;30.306;2023-04-01T00:12:50;6.07;;;3.65;;
41253;SDS011;26987;59.928;30.306;2023-04-01T00:15:18;5.78;;;3.42;;
41253;SDS011;26987;59.928;30.306;2023-04-01T00:17:48;7.60;;;4.88;;
41253;SDS011;26987;59.928;30.306;2023-04-01T00:20:15;8.35;;;3.83;;
41253;SDS011;26987;59.928;30.306;2023-04-01T00:22:43;6.00;;;3.80;;
41253;SDS011;26987;59.928;30.306;2023-04-01T00:25:11;6.60;;;3.88;;
41253;SDS011;26987;59.928;30.306;2023-04-01T00:27:39;5.22;;;3.17;;
41253;SDS011;26987;59.928;30.306;2023-04-01T00:30:07;5.35;;;3.22;;
41253;SDS011;26987;59.928;30.306;2023-04-01T00:32:36;6.82;;;3.85;;
41253;SDS011;26987;59.928;30.306;2023-04-01T00:35:06;7.00;;;4.30;;
41253;SDS011;26987;59.928;30.306;2023-04-01T00:37:34;5.18;;;3.75;;
41253;SDS011;26987;59.928;30.306;2023-04-01T00:40:04;6.50;;;3.10;;
41253;SDS011;26987;59.928;30.306;2023-04-01T00:42:34;7.80;;;3.45;;
41253;SDS011;26987;59.928;30.306;2023-04-01T00:47:52;8.27;;;3.78;;
41253;SDS011;26987;59.928;30.306;2023-04-01T00:50:22;7.00;;;4.13;;
41253;SDS011;26987;59.928;30.306;2023-04-01T00:52:52;6.97;;;4.10;;
41253;SDS011;26987;59.928;30.306;2023-04-01T00:55:20;6.35;;;3.83;;
41253;SDS011;26987;59.928;30.306;2023-04-01T00:57:49;6.60;;;3.97;;
41253;SDS011;26987;59.928;30.306;2023-04-01T01:00:20;9.32;;;5.55;;
41253;SDS011;26987;59.928;30.306;2023-04-01T01:02:48;8.98;;;4.15;;
41253;SDS011;26987;59.928;30.306;2023-04-01T01:05:19;6.35;;;3.35;;
41253;SDS011;26987;59.928;30.306;2023-04-01T01:07:56;5.50;;;3.45;;
41253;SDS011;26987;59.928;30.306;2023-04-01T01:10:31;5.43;;;3.67;;
41253;SDS011;26987;59.928;30.306;2023-04-01T01:13:03;7.50;;;3.63;;
41253;SDS011;26987;59.928;30.306;2023-04-01T01:15:37;5.78;;;3.30;;
41253;SDS011;26987;59.928;30.306;2023-04-01T01:18:15;6.32;;;4.28;;
41253;SDS011;26987;59.928;30.306;2023-04-01T01:21:00;9.27;;;3.40;;
41253;SDS011;26987;59.928;30.306;2023-04-01T01:23:50;6.43;;;4.72;;
41253;SDS011;26987;59.928;30.306;2023-04-01T01:26:44;6.45;;;4.20;;
41253;SDS011;26987;59.928;30.306;2023-04-01T01:29:33;8.60;;;3.47;;
41253;SDS011;26987;59.928;30.306;2023-04-01T01:32:29;5.47;;;4.00;;
41253;SDS011;26987;59.928;30.306;2023-04-01T01:35:16;5.28;;;3.35;;
41253;SDS011;26987;59.928;30.306;2023-04-01T01:37:50;5.00;;;3.38;;
41253;SDS011;26987;59.928;30.306;2023-04-01T01:40:21;7.25;;;2.83;;
41253;SDS011;26987;59.928;30.306;2023-04-01T01:42:52;6.18;;;3.55;;
41253;SDS011;26987;59.928;30.306;2023-04-01T01:45:23;6.30;;;3.55;;
41253;SDS011;26987;59.928;30.306;2023-04-01T01:47:54;5.30;;;3.40;;
41253;SDS011;26987;59.928;30.306;2023-04-01T01:50:25;5.18;;;3.25;;
41253;SDS011;26987;59.928;30.306;2023-04-01T01:53:02;6.95;;;3.50;;
41253;SDS011;26987;59.928;30.306;2023-04-01T01:55:32;7.32;;;3.42;;
41253;SDS011;26987;59.928;30.306;2023-04-01T01:58:04;5.88;;;3.55;;
41253;SDS011;26987;59.928;30.306;2023-04-01T02:00:38;6.45;;;3.13;;
41253;SDS011;26987;59.928;30.306;2023-04-01T02:03:10;5.85;;;3.53;;
41253;SDS011;26987;59.928;30.306;2023-04-01T02:05:42;3.75;;;2.63;;
41253;SDS011;26987;59.928;30.306;2023-04-01T02:08:12;4.70;;;2.88;;
41253;SDS011;26987;59.928;30.306;2023-04-01T02:10:45;6.35;;;3.45;;
41253;SDS011;26987;59.928;30.306;2023-04-01T02:13:21;6.50;;;3.03;;
41253;SDS011;26987;59.928;30.306;2023-04-01T02:15:58;5.63;;;3.30;;
41253;SDS011;26987;59.928;30.306;2023-04-01T02:18:31;5.93;;;3.22;;
41253;SDS011;26987;59.928;30.306;2023-04-01T02:21:05;5.07;;;3.63;;
41253;SDS011;26987;59.928;30.306;2023-04-01T02:23:35;8.13;;;4.07;;
41253;SDS011;26987;59.928;30.306;2023-04-01T02:26:05;4.80;;;3.03;;
41253;SDS011;26987;59.928;30.306;2023-04-01T02:28:36;5.88;;;3.40;;
41253;SDS011;26987;59.928;30.306;2023-04-01T02:31:07;5.30;;;3.53;;
41253;SDS011;26987;59.928;30.306;2023-04-01T02:33:38;8.07;;;4.05;;
41253;SDS011;26987;59.928;30.306;2023-04-01T02:36:11;6.78;;;3.92;;
41253;SDS011;26987;59.928;30.306;2023-04-01T02:38:40;7.90;;;3.47;;
41253;SDS011;26987;59.928;30.306;2023-04-01T02:41:10;6.28;;;3.53;;
41253;SDS011;26987;59.928;30.306;2023-04-01T02:43:38;5.50;;;3.75;;
41253;SDS011;26987;59.928;30.306;2023-04-01T02:46:06;4.80;;;2.58;;
41253;SDS011;26987;59.928;30.306;2023-04-01T02:48:34;4.03;;;3.10;;
41253;SDS011;26987;59.928;30.306;2023-04-01T02:51:02;4.80;;;2.92;;
41253;SDS011;26987;59.928;30.306;2023-04-01T02:53:32;5.72;;;3.90;;
41253;SDS011;26987;59.928;30.306;2023-04-01T02:56:00;4.70;;;3.00;;
41253;SDS011;26987;59.928;30.306;2023-04-01T02:58:28;5.00;;;3.85;;
41253;SDS011;26987;59.928;30.306;2023-04-01T03:00:56;7.05;;;3.42;;
41253;SDS011;26987;59.928;30.306;2023-04-01T03:03:24;7.05;;;3.78;;
41253;SDS011;26987;59.928;30.306;2023-04-01T03:05:52;5.53;;;3.55;;
41253;SDS011;26987;59.928;30.306;2023-04-01T03:08:22;7.03;;;3.53;;
41253;SDS011;26987;59.928;30.306;2023-04-01T03:10:51;6.53;;;4.07;;
41253;SDS011;26987;59.928;30.306;2023-04-01T03:13:20;6.65;;;3.65;;
41253;SDS011;26987;59.928;30.306;2023-04-01T03:15:48;10.68;;;3.95;;
41253;SDS011;26987;59.928;30.306;2023-04-01T03:18:16;5.75;;;3.60;;
41253;SDS011;26987;59.928;30.306;2023-04-01T03:20:44;7.72;;;3.30;;
41253;SDS011;26987;59.928;30.306;2023-04-01T03:23:12;5.30;;;3.38;;
41253;SDS011;26987;59.928;30.306;2023-04-01T03:25:42;6.35;;;3.92;;
41253;SDS011;26987;59.928;30.306;2023-04-01T03:28:11;6.05;;;3.45;;
41253;SDS011;26987;59.928;30.306;2023-04-01T03:30:40;6.20;;;3.88;;
41253;SDS011;26987;59.928;30.306;2023-04-01T03:33:09;7.35;;;3.80;;
41253;SDS011;26987;59.928;30.306;2023-04-01T03:35:36;7.38;;;4.03;;
41253;SDS011;26987;59.928;30.306;2023-04-01T03:38:05;4.45;;;3.20;;
41253;SDS011;26987;59.928;30.306;2023-04-01T03:40:33;5.32;;;3.58;;
41253;SDS011;26987;59.928;30.306;2023-04-01T03:43:03;3.88;;;2.20;;
41253;SDS011;26987;59.928;30.306;2023-04-01T03:45:40;7.35;;;3.88;;
41253;SDS011;26987;59.928;30.306;2023-04-01T03:48:13;6.43;;;4.15;;
41253;SDS011;26987;59.928;30.306;2023-04-01T03:50:41;5.53;;;3.22;;
41253;SDS011;26987;59.928;30.306;2023-04-01T03:53:10;6.82;;;3.40;;
41253;SDS011;26987;59.928;30.306;2023-04-01T03:55:41;5.55;;;3.20;;
41253;SDS011;26987;59.928;30.306;2023-04-01T03:58:09;8.07;;;2.30;;
41253;SDS011;26987;59.928;30.306;2023-04-01T04:00:38;5.75;;;3.92;;
41253;SDS011;26987;59.928;30.306;2023-04-01T04:03:06;4.00;;;2.90;;
41253;SDS011;26987;59.928;30.306;2023-04-01T04:05:35;5.75;;;2.75;;
41253;SDS011;26987;59.928;30.306;2023-04-01T04:08:04;6.78;;;3.42;;
41253;SDS011;26987;59.928;30.306;2023-04-01T04:10:32;6.22;;;3.47;;
41253;SDS011;26987;59.928;30.306;2023-04-01T04:13:01;6.38;;;3.75;;
41253;SDS011;26987;59.928;30.306;2023-04-01T04:15:31;5.63;;;3.42;;
41253;SDS011;26987;59.928;30.306;2023-04-01T04:18:00;4.15;;;2.90;;
41253;SDS011;26987;59.928;30.306;2023-04-01T04:20:28;4.25;;;3.05;;
41253;SDS011;26987;59.928;30.306;2023-04-01T04:22:56;6.75;;;3.67;;
41253;SDS011;26987;59.928;30.306;2023-04-01T04:25:24;6.63;;;3.47;;
41253;SDS011;26987;59.928;30.306;2023-04-01T04:27:52;6.28;;;4.13;;
41253;SDS011;26987;59.928;30.306;2023-04-01T04:30:23;6.50;;;3.47;;
41253;SDS011;26987;59.928;30.306;2023-04-01T04:32:50;5.82;;;3.80;;
41253;SDS011;26987;59.928;30.306;2023-04-01T04:35:20;6.38;;;3.38;;
41253;SDS011;26987;59.928;30.306;2023-04-01T04:37:48;4.07;;;2.50;;
41253;SDS011;26987;59.928;30.306;2023-04-01T04:40:17;7.97;;;3.63;;
41253;SDS011;26987;59.928;30.306;2023-04-01T04:42:45;5.07;;;2.80;;
41253;SDS011;26987;59.928;30.306;2023-04-01T04:45:15;7.97;;;3.10;;
41253;SDS011;26987;59.928;30.306;2023-04-01T04:47:52;3.40;;;2.33;;
41253;SDS011;26987;59.928;30.306;2023-04-01T04:50:21;4.18;;;2.38;;
41253;SDS011;26987;59.928;30.306;2023-04-01T04:52:51;7.53;;;2.45;;
41253;SDS011;26987;59.928;30.306;2023-04-01T04:55:19;4.07;;;2.60;;
41253;SDS011;26987;59.928;30.306;2023-04-01T04:57:55;5.00;;;2.80;;
41253;SDS011;26987;59.928;30.306;2023-04-01T05:00:22;5.15;;;2.53;;
41253;SDS011;26987;59.928;30.306;2023-04-01T05:02:57;16.13;;;3.17;;
41253;SDS011;26987;59.928;30.306;2023-04-01T05:05:27;3.88;;;2.28;;
41253;SDS011;26987;59.928;30.306;2023-04-01T05:07:55;4.13;;;2.40;;
41253;SDS011;26987;59.928;30.306;2023-04-01T05:10:23;3.90;;;2.55;;
41253;SDS011;26987;59.928;30.306;2023-04-01T05:12:51;4.03;;;2.35;;
41253;SDS011;26987;59.928;30.306;2023-04-01T05:15:21;4.05;;;2.10;;
41253;SDS011;26987;59.928;30.306;2023-04-01T05:17:49;3.78;;;2.10;;
41253;SDS011;26987;59.928;30.306;2023-04-01T05:20:17;4.53;;;3.13;;
41253;SDS011;26987;59.928;30.306;2023-04-01T05:22:46;6.85;;;2.95;;
41253;SDS011;26987;59.928;30.306;2023-04-01T05:25:14;4.72;;;2.55;;
41253;SDS011;26987;59.928;30.306;2023-04-01T05:27:42;3.80;;;2.03;;
41253;SDS011;26987;59.928;30.306;2023-04-01T05:30:11;4.15;;;2.50;;
41253;SDS011;26987;59.928;30.306;2023-04-01T05:32:58;6.35;;;3.15;;
41253;SDS011;26987;59.928;30.306;2023-04-01T05:35:26;8.00;;;2.35;;
41253;SDS011;26987;59.928;30.306;2023-04-01T05:37:56;5.22;;;3.30;;
41253;SDS011;26987;59.928;30.306;2023-04-01T05:40:23;5.60;;;3.05;;
41253;SDS011;26987;59.928;30.306;2023-04-01T05:42:51;9.05;;;3.83;;
41253;SDS011;26987;59.928;30.306;2023-04-01T05:45:19;5.68;;;3.15;;
41253;SDS011;26987;59.928;30.306;2023-04-01T05:48:06;7.47;;;3.42;;
41253;SDS011;26987;59.928;30.306;2023-04-01T05:50:39;6.00;;;3.03;;
41253;SDS011;26987;59.928;30.306;2023-04-01T05:53:11;7.72;;;3.30;;
41253;SDS011;26987;59.928;30.306;2023-04-01T05:55:42;8.05;;;3.67;;
41253;SDS011;26987;59.928;30.306;2023-04-01T05:58:10;8.30;;;3.40;;
41253;SDS011;26987;59.928;30.306;2023-04-01T06:00:41;6.90;;;3.50;;
41253;SDS011;26987;59.928;30.306;2023-04-01T06:03:11;8.95;;;3.60;;
41253;SDS011;26987;59.928;30.306;2023-04-01T06:05:39;7.25;;;3.53;;
41253;SDS011;26987;59.928;30.306;2023-04-01T06:08:13;6.43;;;3.03;;
41253;SDS011;26987;59.928;30.306;2023-04-01T06:10:50;4.60;;;2.97;;
41253;SDS011;26987;59.928;30.306;2023-04-01T06:13:30;6.00;;;2.97;;
41253;SDS011;26987;59.928;30.306;2023-04-01T06:16:08;6.45;;;3.33;;
41253;SDS011;26987;59.928;30.306;2023-04-01T06:18:54;7.03;;;3.08;;
41253;SDS011;26987;59.928;30.306;2023-04-01T06:21:48;4.90;;;3.10;;
41253;SDS011;26987;59.928;30.306;2023-04-01T06:24:39;8.70;;;3.03;;
41253;SDS011;26987;59.928;30.306;2023-04-01T06:27:29;5.97;;;2.58;;
41253;SDS011;26987;59.928;30.306;2023-04-01T06:30:16;4.22;;;2.65;;
41253;SDS011;26987;59.928;30.306;2023-04-01T06:33:01;4.85;;;2.60;;
41253;SDS011;26987;59.928;30.306;2023-04-01T06:35:46;4.97;;;3.13;;
41253;SDS011;26987;59.928;30.306;2023-04-01T06:38:32;4.28;;;2.22;;
41253;SDS011;26987;59.928;30.306;2023-04-01T06:41:29;5.53;;;2.45;;
41253;SDS011;26987;59.928;30.306;2023-04-01T06:44:23;6.90;;;3.05;;
41253;SDS011;26987;59.928;30.306;2023-04-01T06:47:22;5.80;;;3.50;;
41253;SDS011;26987;59.928;30.306;2023-04-01T06:50:34;5.32;;;2.80;;
41253;SDS011;26987;59.928;30.306;2023-04-01T06:53:31;7.45;;;3.40;;
41253;SDS011;26987;59.928;30.306;2023-04-01T06:56:44;5.78;;;2.35;;
41253;SDS011;26987;59.928;30.306;2023-04-01T06:59:25;4.45;;;2.40;;
41253;SDS011;26987;59.928;30.306;2023-04-01T07:01:55;6.05;;;3.10;;
41253;SDS011;26987;59.928;30.306;2023-04-01T07:04:28;5.85;;;2.92;;
41253;SDS011;26987;59.928;30.306;2023-04-01T07:06:58;7.22;;;3.45;;
41253;SDS011;26987;59.928;30.306;2023-04-01T07:09:31;6.57;;;3.65;;
41253;SDS011;26987;59.928;30.306;2023-04-01T07:12:23;5.82;;;3.47;;
41253;SDS011;26987;59.928;30.306;2023-04-01T07:15:20;6.10;;;2.88;;
41253;SDS011;26987;59.928;30.306;2023-04-01T07:17:53;6.18;;;3.08;;
41253;SDS011;26987;59.928;30.306;2023-04-01T07:20:27;6.47;;;3.15;;
41253;SDS011;26987;59.928;30.306;2023-04-01T07:22:58;3.90;;;2.50;;
41253;SDS011;26987;59.928;30.306;2023-04-01T07:25:55;3.88;;;2.65;;
41253;SDS011;26987;59.928;30.306;2023-04-01T07:28:51;5.05;;;3.00;;
41253;SDS011;26987;59.928;30.306;2023-04-01T07:31:32;4.60;;;2.50;;
41253;SDS011;26987;59.928;30.306;2023-04-01T07:34:14;3.38;;;2.08;;
41253;SDS011;26987;59.928;30.306;2023-04-01T07:36:47;5.18;;;2.38;;
41253;SDS011;26987;59.928;30.306;2023-04-01T07:39:25;4.18;;;1.90;;
41253;SDS011;26987;59.928;30.306;2023-04-01T07:42:09;3.10;;;1.90;;
41253;SDS011;26987;59.928;30.306;2023-04-01T07:44:52;2.03;;;1.63;;
41253;SDS011;26987;59.928;30.306;2023-04-01T07:47:40;4.25;;;2.10;;
41253;SDS011;26987;59.928;30.306;2023-04-01T07:50:20;7.38;;;2.63;;
41253;SDS011;26987;59.928;30.306;2023-04-01T07:52:55;4.80;;;3.10;;
41253;SDS011;26987;59.928;30.306;2023-04-01T07:55:35;5.40;;;3.50;;
41253;SDS011;26987;59.928;30.306;2023-04-01T07:58:11;5.15;;;3.20;;
41253;SDS011;26987;59.928;30.306;2023-04-01T08:00:49;4.80;;;3.58;;
41253;SDS011;26987;59.928;30.306;2023-04-01T08:03:37;4.63;;;2.20;;
41253;SDS011;26987;59.928;30.306;2023-04-01T08:06:17;3.35;;;2.30;;
41253;SDS011;26987;59.928;30.306;2023-04-01T08:08:56;4.20;;;2.22;;
41253;SDS011;26987;59.928;30.306;2023-04-01T08:14:44;3.60;;;1.80;;
41253;SDS011;26987;59.928;30.306;2023-04-01T08:17:38;3.38;;;1.60;;
41253;SDS011;26987;59.928;30.306;2023-04-01T08:20:18;3.42;;;2.35;;
41253;SDS011;26987;59.928;30.306;2023-04-01T08:22:57;3.58;;;2.05;;
41253;SDS011;26987;59.928;30.306;2023-04-01T08:25:34;6.78;;;2.97;;
41253;SDS011;26987;59.928;30.306;2023-04-01T08:28:09;5.65;;;2.70;;
41253;SDS011;26987;59.928;30.306;2023-04-01T08:30:43;7.22;;;2.33;;
41253;SDS011;26987;59.928;30.306;2023-04-01T08:33:19;3.53;;;1.98;;
41253;SDS011;26987;59.928;30.306;2023-04-01T08:35:56;5.18;;;2.13;;
41253;SDS011;26987;59.928;30.306;2023-04-01T08:38:30;4.55;;;2.10;;
41253;SDS011;26987;59.928;30.306;2023-04-01T08:41:20;6.38;;;2.33;;
41253;SDS011;26987;59.928;30.306;2023-04-01T08:44:46;4.40;;;2.28;;
41253;SDS011;26987;59.928;30.306;2023-04-01T08:47:40;4.15;;;2.05;;
41253;SDS011;26987;59.928;30.306;2023-04-01T08:50:26;4.68;;;1.80;;
41253;SDS011;26987;59.928;30.306;2023-04-01T08:56:30;4.78;;;1.50;;
41253;SDS011;26987;59.928;30.306;2023-04-01T08:59:22;2.75;;;1.90;;
41253;SDS011;26987;59.928;30.306;2023-04-01T09:02:25;14.05;;;2.92;;
41253;SDS011;26987;59.928;30.306;2023-04-01T09:08:18;4.28;;;2.40;;
41253;SDS011;26987;59.928;30.306;2023-04-01T09:11:06;2.85;;;1.73;;
41253;SDS011;26987;59.928;30.306;2023-04-01T09:17:27;6.25;;;2.10;;
41253;SDS011;26987;59.928;30.306;2023-04-01T09:20:17;4.50;;;2.50;;
41253;SDS011;26987;59.928;30.306;2023-04-01T09:23:11;4.55;;;2.50;;
41253;SDS011;26987;59.928;30.306;2023-04-01T09:25:57;3.97;;;2.13;;
41253;SDS011;26987;59.928;30.306;2023-04-01T09:28:38;3.03;;;2.03;;
41253;SDS011;26987;59.928;30.306;2023-04-01T09:31:13;8.45;;;2.20;;
41253;SDS011;26987;59.928;30.306;2023-04-01T09:34:35;3.92;;;1.88;;
41253;SDS011;26987;59.928;30.306;2023-04-01T09:37:21;4.75;;;2.38;;
41253;SDS011;26987;59.928;30.306;2023-04-01T09:40:18;5.00;;;2.05;;
41253;SDS011;26987;59.928;30.306;2023-04-01T09:43:06;5.65;;;2.65;;
41253;SDS011;26987;59.928;30.306;2023-04-01T09:45:51;3.53;;;2.45;;
41253;SDS011;26987;59.928;30.306;2023-04-01T09:48:31;5.45;;;2.78;;
41253;SDS011;26987;59.928;30.306;2023-04-01T09:51:22;3.90;;;2.38;;
41253;SDS011;26987;59.928;30.306;2023-04-01T09:54:02;6.00;;;3.65;;
41253;SDS011;26987;59.928;30.306;2023-04-01T09:56:52;5.38;;;3.10;;
41253;SDS011;26987;59.928;30.306;2023-04-01T10:03:02;7.25;;;3.25;;
41253;SDS011;26987;59.928;30.306;2023-04-01T10:12:25;6.55;;;3.72;;
41253;SDS011;26987;59.928;30.306;2023-04-01T10:18:49;4.43;;;3.10;;
41253;SDS011;26987;59.928;30.306;2023-04-01T10:21:45;6.10;;;4.07;;
41253;SDS011;26987;59.928;30.306;2023-04-01T10:24:41;6.20;;;3.38;;
41253;SDS011;26987;59.928;30.306;2023-04-01T10:27:40;6.30;;;3.40;;
41253;SDS011;26987;59.928;30.306;2023-04-01T10:37:07;7.18;;;3.90;;
41253;SDS011;26987;59.928;30.306;2023-04-01T10:39:58;8.20;;;4.22;;
41253;SDS011;26987;59.928;30.306;2023-04-01T10:59:27;3.80;;;2.63;;
41253;SDS011;26987;59.928;30.306;2023-04-01T11:12:14;6.03;;;3.10;;
41253;SDS011;26987;59.928;30.306;2023-04-01T11:15:13;4.28;;;3.05;;
41253;SDS011;26987;59.928;30.306;2023-04-01T11:27:47;5.63;;;3.50;;
41253;SDS011;26987;59.928;30.306;2023-04-01T11:30:49;8.13;;;3.45;;
41253;SDS011;26987;59.928;30.306;2023-04-01T11:33:33;7.05;;;3.53;;
41253;SDS011;26987;59.928;30.306;2023-04-01T11:36:14;8.05;;;3.83;;
41253;SDS011;26987;59.928;30.306;2023-04-01T11:38:58;7.03;;;3.83;;
41253;SDS011;26987;59.928;30.306;2023-04-01T11:41:55;5.40;;;3.80;;
41253;SDS011;26987;59.928;30.306;2023-04-01T11:44:51;11.80;;;4.05;;
41253;SDS011;26987;59.928;30.306;2023-04-01T11:47:51;12.13;;;4.40;;
41253;SDS011;26987;59.928;30.306;2023-04-01T11:50:33;10.20;;;3.80;;
41253;SDS011;26987;59.928;30.306;2023-04-01T11:53:23;6.25;;;3.42;;
41253;SDS011;26987;59.928;30.306;2023-04-01T11:56:03;6.40;;;2.78;;
41253;SDS011;26987;59.928;30.306;2023-04-01T11:58:53;6.53;;;4.18;;
41253;SDS011;26987;59.928;30.306;2023-04-01T12:01:55;5.78;;;3.90;;
41253;SDS011;26987;59.928;30.306;2023-04-01T12:04:45;13.88;;;3.95;;
41253;SDS011;26987;59.928;30.306;2023-04-01T12:07:44;7.10;;;3.60;;
41253;SDS011;26987;59.928;30.306;2023-04-01T12:10:24;7.00;;;3.70;;
41253;SDS011;26987;59.928;30.306;2023-04-01T12:12:58;7.00;;;3.88;;
41253;SDS011;26987;59.928;30.306;2023-04-01T12:15:33;5.47;;;3.00;;
41253;SDS011;26987;59.928;30.306;2023-04-01T12:18:13;8.05;;;4.43;;
41253;SDS011;26987;59.928;30.306;2023-04-01T12:20:50;5.22;;;3.55;;
41253;SDS011;26987;59.928;30.306;2023-04-01T12:26:22;5.68;;;3.33;;
41253;SDS011;26987;59.928;30.306;2023-04-01T12:29:03;5.90;;;3.63;;
41253;SDS011;26987;59.928;30.306;2023-04-01T12:31:42;7.93;;;2.85;;
41253;SDS011;26987;59.928;30.306;2023-04-01T12:37:28;5.10;;;3.00;;
41253;SDS011;26987;59.928;30.306;2023-04-01T12:40:16;9.07;;;3.00;;
41253;SDS011;26987;59.928;30.306;2023-04-01T12:43:01;8.23;;;3.30;;
41253;SDS011;26987;59.928;30.306;2023-04-01T12:45:39;9.65;;;3.70;;
41253;SDS011;26987;59.928;30.306;2023-04-01T12:48:20;5.85;;;2.72;;
41253;SDS011;26987;59.928;30.306;2023-04-01T12:57:14;7.63;;;3.30;;
41253;SDS011;26987;59.928;30.306;2023-04-01T13:00:11;11.20;;;3.63;;
41253;SDS011;26987;59.928;30.306;2023-04-01T13:02:55;9.02;;;3.90;;
41253;SDS011;26987;59.928;30.306;2023-04-01T13:05:35;6.85;;;3.22;;
41253;SDS011;26987;59.928;30.306;2023-04-01T13:08:22;5.20;;;3.17;;
41253;SDS011;26987;59.928;30.306;2023-04-01T13:11:08;4.20;;;2.60;;
41253;SDS011;26987;59.928;30.306;2023-04-01T13:14:04;5.03;;;3.05;;
41253;SDS011;26987;59.928;30.306;2023-04-01T13:19:21;4.28;;;2.35;;
41253;SDS011;26987;59.928;30.306;2023-04-01T13:21:58;4.80;;;2.53;;
41253;SDS011;26987;59.928;30.306;2023-04-01T13:24:39;5.38;;;3.08;;
41253;SDS011;26987;59.928;30.306;2023-04-01T13:27:14;7.78;;;3.08;;
41253;SDS011;26987;59.928;30.306;2023-04-01T13:29:49;2.45;;;1.33;;
41253;SDS011;26987;59.928;30.306;2023-04-01T13:32:29;5.63;;;2.72;;
41253;SDS011;26987;59.928;30.306;2023-04-01T13:35:08;6.90;;;2.75;;
41253;SDS011;26987;59.928;30.306;2023-04-01T13:37:47;4.65;;;2.58;;
41253;SDS011;26987;59.928;30.306;2023-04-01T13:40:33;3.72;;;2.33;;
41253;SDS011;26987;59.928;30.306;2023-04-01T13:43:08;3.70;;;2.00;;
41253;SDS011;26987;59.928;30.306;2023-04-01T13:45:47;5.55;;;2.20;;
41253;SDS011;26987;59.928;30.306;2023-04-01T13:48:31;3.45;;;1.58;;
41253;SDS011;26987;59.928;30.306;2023-04-01T13:54:03;2.63;;;1.50;;
41253;SDS011;26987;59.928;30.306;2023-04-01T13:56:57;2.88;;;1.45;;
41253;SDS011;26987;59.928;30.306;2023-04-01T13:59:50;3.70;;;1.65;;
41253;SDS011;26987;59.928;30.306;2023-04-01T14:02:38;3.67;;;1.33;;
41253;SDS011;26987;59.928;30.306;2023-04-01T14:05:24;2.30;;;1.10;;
41253;SDS011;26987;59.928;30.306;2023-04-01T14:08:06;2.80;;;1.40;;
41253;SDS011;26987;59.928;30.306;2023-04-01T14:10:43;1.63;;;0.95;;
41253;SDS011;26987;59.928;30.306;2023-04-01T14:13:20;4.95;;;1.48;;
41253;SDS011;26987;59.928;30.306;2023-04-01T14:15:59;3.22;;;1.10;;
41253;SDS011;26987;59.928;30.306;2023-04-01T14:18:51;2.38;;;0.90;;
41253;SDS011;26987;59.928;30.306;2023-04-01T14:21:29;3.53;;;1.30;;
41253;SDS011;26987;59.928;30.306;2023-04-01T14:24:08;5.88;;;0.77;;
41253;SDS011;26987;59.928;30.306;2023-04-01T14:26:54;1.60;;;0.70;;
41253;SDS011;26987;59.928;30.306;2023-04-01T14:29:42;1.77;;;1.00;;
41253;SDS011;26987;59.928;30.306;2023-04-01T14:32:27;1.70;;;0.90;;
41253;SDS011;26987;59.928;30.306;2023-04-01T14:35:11;1.10;;;0.63;;
41253;SDS011;26987;59.928;30.306;2023-04-01T14:38:00;2.10;;;1.10;;
41253;SDS011;26987;59.928;30.306;2023-04-01T14:40:36;2.10;;;0.70;;
41253;SDS011;26987;59.928;30.306;2023-04-01T14:43:27;1.63;;;0.80;;
41253;SDS011;26987;59.928;30.306;2023-04-01T14:46:14;1.20;;;0.60;;
41253;SDS011;26987;59.928;30.306;2023-04-01T14:49:02;2.10;;;0.93;;
41253;SDS011;26987;59.928;30.306;2023-04-01T14:51:32;2.22;;;0.98;;
41253;SDS011;26987;59.928;30.306;2023-04-01T14:54:05;3.65;;;1.30;;
41253;SDS011;26987;59.928;30.306;2023-04-01T14:56:40;2.83;;;1.02;;
41253;SDS011;26987;59.928;30.306;2023-04-01T14:59:10;3.22;;;1.00;;
41253;SDS011;26987;59.928;30.306;2023-04-01T15:01:45;3.17;;;1.00;;
41253;SDS011;26987;59.928;30.306;2023-04-01T15:10:19;4.25;;;1.00;;
41253;SDS011;26987;59.928;30.306;2023-04-01T15:13:03;2.83;;;1.13;;
41253;SDS011;26987;59.928;30.306;2023-04-01T15:15:41;2.85;;;1.10;;
41253;SDS011;26987;59.928;30.306;2023-04-01T15:18:29;3.72;;;1.08;;
41253;SDS011;26987;59.928;30.306;2023-04-01T15:21:15;2.05;;;0.93;;
41253;SDS011;26987;59.928;30.306;2023-04-01T15:23:53;3.88;;;0.98;;
41253;SDS011;26987;59.928;30.306;2023-04-01T15:29:43;3.88;;;1.00;;
41253;SDS011;26987;59.928;30.306;2023-04-01T15:32:32;2.50;;;1.05;;
41253;SDS011;26987;59.928;30.306;2023-04-01T15:35:14;2.50;;;0.88;;
41253;SDS011;26987;59.928;30.306;2023-04-01T15:37:51;3.90;;;1.00;;
41253;SDS011;26987;59.928;30.306;2023-04-01T15:40:24;2.25;;;1.05;;
41253;SDS011;26987;59.928;30.306;2023-04-01T15:43:01;2.90;;;1.02;;
41253;SDS011;26987;59.928;30.306;2023-04-01T15:45:39;1.33;;;0.68;;
41253;SDS011;26987;59.928;30.306;2023-04-01T15:48:20;2.00;;;0.90;;
41253;SDS011;26987;59.928;30.306;2023-04-01T15:51:01;2.15;;;0.80;;
41253;SDS011;26987;59.928;30.306;2023-04-01T15:53:56;1.67;;;0.90;;
41253;SDS011;26987;59.928;30.306;2023-04-01T15:57:10;4.60;;;0.88;;
41253;SDS011;26987;59.928;30.306;2023-04-01T15:59:53;1.48;;;0.52;;
41253;SDS011;26987;59.928;30.306;2023-04-01T16:02:41;3.38;;;1.02;;
41253;SDS011;26987;59.928;30.306;2023-04-01T16:11:13;1.70;;;0.77;;
41253;SDS011;26987;59.928;30.306;2023-04-01T16:13:48;3.80;;;1.20;;
41253;SDS011;26987;59.928;30.306;2023-04-01T16:16:29;2.53;;;1.10;;
41253;SDS011;26987;59.928;30.306;2023-04-01T16:19:13;2.65;;;1.00;;
41253;SDS011;26987;59.928;30.306;2023-04-01T16:21:54;4.28;;;1.08;;
41253;SDS011;26987;59.928;30.306;2023-04-01T16:24:31;2.75;;;1.00;;
41253;SDS011;26987;59.928;30.306;2023-04-01T16:27:08;4.10;;;1.10;;
41253;SDS011;26987;59.928;30.306;2023-04-01T16:29:43;4.07;;;1.10;;
41253;SDS011;26987;59.928;30.306;2023-04-01T16:35:15;5.80;;;1.42;;
41253;SDS011;26987;59.928;30.306;2023-04-01T16:37:50;11.93;;;2.10;;
41253;SDS011;26987;59.928;30.306;2023-04-01T16:40:24;5.32;;;1.27;;
41253;SDS011;26987;59.928;30.306;2023-04-01T16:43:11;3.22;;;1.20;;
41253;SDS011;26987;59.928;30.306;2023-04-01T16:45:46;5.55;;;1.40;;
41253;SDS011;26987;59.928;30.306;2023-04-01T16:48:23;2.53;;;1.33;;
41253;SDS011;26987;59.928;30.306;2023-04-01T16:51:15;3.72;;;1.20;;
41253;SDS011;26987;59.928;30.306;2023-04-01T16:53:46;3.63;;;1.20;;
41253;SDS011;26987;59.928;30.306;2023-04-01T16:56:16;3.70;;;1.10;;
41253;SDS011;26987;59.928;30.306;2023-04-01T16:58:57;3.90;;;1.83;;
41253;SDS011;26987;59.928;30.306;2023-04-01T17:01:31;6.40;;;1.42;;
41253;SDS011;26987;59.928;30.306;2023-04-01T17:04:12;4.10;;;1.35;;
41253;SDS011;26987;59.928;30.306;2023-04-01T17:06:48;4.80;;;1.70;;
41253;SDS011;26987;59.928;30.306;2023-04-01T17:09:26;11.73;;;2.15;;
41253;SDS011;26987;59.928;30.306;2023-04-01T17:12:08;4.70;;;1.65;;
41253;SDS011;26987;59.928;30.306;2023-04-01T17:14:45;3.83;;;1.33;;
41253;SDS011;26987;59.928;30.306;2023-04-01T17:17:23;3.05;;;1.38;;
41253;SDS011;26987;59.928;30.306;2023-04-01T17:20:08;4.25;;;1.70;;
41253;SDS011;26987;59.928;30.306;2023-04-01T17:22:49;2.45;;;1.30;;
41253;SDS011;26987;59.928;30.306;2023-04-01T17:25:26;3.30;;;1.67;;
41253;SDS011;26987;59.928;30.306;2023-04-01T17:28:05;2.88;;;1.33;;